Time;durP1;ratioP1;P1;durP2;ratioP2;P2;SDS_P1;SDS_P2;PMS_P1;PMS_P2;Temp;Humidity;BMP_temperature;BMP_pressure;BME280_temperature;BME280_humidity;BME280_pressure;Samples;Min_cycle;Max_cycle;Signal;HPM_P1;HPM_P2
2021/11/22 00:01:19;;;;;;;11.80;8.70;;;;;;;8.49;69.46;98728.52;105030;1328;137447;-54
2021/11/22 00:03:49;;;;;;;12.70;10.20;;;;;;;8.48;69.47;98733.80;105082;1329;22537;-55
2021/11/22 00:06:17;;;;;;;14.10;10.40;;;;;;;8.48;69.55;98731.19;105051;1328;23241;-54
2021/11/22 00:08:45;;;;;;;12.50;9.60;;;;;;;8.48;69.60;98738.90;104942;1328;178647;-53
2021/11/22 00:11:13;;;;;;;14.50;10.30;;;;;;;8.46;69.65;98736.80;105414;1329;23250;-53
2021/11/22 00:13:42;;;;;;;11.30;8.80;;;;;;;8.47;69.60;98741.33;106288;1313;138570;-53
2021/11/22 00:16:10;;;;;;;14.00;9.80;;;;;;;8.46;69.65;98740.19;106299;1315;22493;-53
2021/11/22 00:18:58;;;;;;;14.40;9.70;;;;;;;8.46;69.68;98741.15;106164;1315;138595;-53
2021/11/22 00:21:27;;;;;;;14.00;9.50;;;;;;;8.45;69.79;98746.80;106224;1315;22485;-53
2021/11/22 00:23:58;;;;;;;13.30;10.00;;;;;;;8.44;69.64;98749.19;106232;1315;22531;-53
2021/11/22 00:26:27;;;;;;;14.50;10.10;;;;;;;8.43;69.77;98750.64;106176;1315;138260;-53
2021/11/22 00:29:07;;;;;;;19.20;11.90;;;;;;;8.43;69.74;98753.35;106211;1315;23580;-53
2021/11/22 00:31:53;;;;;;;23.20;12.90;;;;;;;8.40;69.92;98752.03;106060;1316;139646;-53
2021/11/22 00:34:57;;;;;;;20.30;12.80;;;;;;;8.41;70.04;98756.70;105945;1315;23281;-53
2021/11/22 00:37:41;;;;;;;23.10;13.50;;;;;;;8.40;70.22;98753.87;106063;1315;138312;-53
2021/11/22 00:40:10;;;;;;;20.60;12.30;;;;;;;8.38;70.16;98762.70;106209;1316;22548;-54
2021/11/22 00:42:45;;;;;;;21.30;13.50;;;;;;;8.37;70.20;98764.93;106285;1316;23207;-54
2021/11/22 00:45:14;;;;;;;19.60;12.90;;;;;;;8.35;70.49;98767.05;105698;1316;137695;-54
2021/11/22 00:47:43;;;;;;;18.00;12.30;;;;;;;8.34;70.54;98763.14;106285;1316;23442;-53
2021/11/22 00:50:11;;;;;;;19.70;12.50;;;;;;;8.33;70.66;98768.66;106133;1315;138324;-54
2021/11/22 00:52:40;;;;;;;18.70;10.90;;;;;;;8.32;70.65;98767.90;106241;1315;22407;-53
2021/11/22 00:55:08;;;;;;;18.30;11.20;;;;;;;8.31;70.78;98766.92;106107;1316;139055;-53
2021/11/22 00:57:36;;;;;;;19.30;12.80;;;;;;;8.27;71.01;98767.72;106158;1315;22589;-54
2021/11/22 01:00:09;;;;;;;18.40;12.10;;;;;;;8.27;71.03;98764.23;106278;1316;22501;-53
2021/11/22 01:02:37;;;;;;;17.30;12.00;;;;;;;8.26;71.05;98772.70;106118;1315;138242;-53
2021/11/22 01:05:06;;;;;;;19.10;13.20;;;;;;;8.24;71.11;98775.17;106230;1315;22475;-54
2021/11/22 01:07:34;;;;;;;22.30;13.50;;;;;;;8.24;71.29;98778.21;106077;1316;137768;-54
2021/11/22 01:10:03;;;;;;;19.80;12.70;;;;;;;8.23;71.27;98782.48;106236;1315;22394;-53
2021/11/22 01:12:31;;;;;;;18.50;11.40;;;;;;;8.22;71.25;98778.92;106219;1316;22610;-53
2021/11/22 01:15:00;;;;;;;19.20;13.20;;;;;;;8.20;71.42;98779.08;106121;1315;138934;-53
2021/11/22 01:17:29;;;;;;;20.30;13.00;;;;;;;8.18;71.43;98781.44;106222;1315;22423;-54
2021/11/22 01:19:57;;;;;;;27.70;14.60;;;;;;;8.15;71.62;98782.51;106147;1316;138681;-53
2021/11/22 01:22:26;;;;;;;22.90;14.70;;;;;;;8.14;71.75;98780.33;106232;1316;22532;-54
2021/11/22 01:24:56;;;;;;;25.50;15.70;;;;;;;8.13;71.75;98775.54;106143;1315;140017;-53
2021/11/22 01:27:45;;;;;;;26.80;14.10;;;;;;;8.11;71.86;98778.34;106151;1316;22477;-53
2021/11/22 01:30:13;;;;;;;22.60;13.10;;;;;;;8.10;71.98;98780.88;106224;1316;22382;-53
2021/11/22 01:32:41;;;;;;;22.00;13.40;;;;;;;8.10;71.98;98786.52;106036;1315;138266;-53
2021/11/22 01:35:09;;;;;;;19.90;12.90;;;;;;;8.08;72.15;98786.23;106273;1316;22386;-53
2021/11/22 01:37:38;;;;;;;19.30;13.30;;;;;;;8.06;72.10;98784.30;106137;1315;139638;-53
2021/11/22 01:40:07;;;;;;;20.60;12.60;;;;;;;8.05;72.08;98786.67;106265;1315;22406;-53
2021/11/22 01:42:37;;;;;;;20.60;12.60;;;;;;;8.03;72.35;98784.01;106222;1315;22602;-53
2021/11/22 01:45:07;;;;;;;18.80;13.10;;;;;;;8.03;72.20;98789.04;106088;1315;139435;-54
2021/11/22 01:47:35;;;;;;;20.00;11.30;;;;;;;8.01;72.25;98789.62;106179;1315;23399;-54
2021/11/22 01:50:04;;;;;;;17.20;11.90;;;;;;;7.99;72.15;98786.51;106124;1315;138582;-53
2021/11/22 01:52:32;;;;;;;14.50;10.30;;;;;;;7.94;72.18;98784.94;106264;1315;22494;-53
2021/11/22 01:55:00;;;;;;;15.00;10.20;;;;;;;7.93;72.27;98785.86;106160;1315;139233;-54
2021/11/22 01:57:29;;;;;;;16.90;11.30;;;;;;;7.90;72.31;98789.37;106256;1315;22388;-53
2021/11/22 01:59:58;;;;;;;16.00;11.00;;;;;;;7.89;72.32;98787.13;106195;1315;22508;-53
2021/11/22 02:02:26;;;;;;;15.40;10.30;;;;;;;7.87;72.43;98788.96;106083;1316;138907;-53
2021/11/22 02:04:55;;;;;;;15.00;10.70;;;;;;;7.87;72.62;98791.61;105705;1321;23404;-53
2021/11/22 02:07:24;;;;;;;14.20;10.00;;;;;;;7.85;72.51;98797.07;106061;1315;139370;-54
2021/11/22 02:09:52;;;;;;;15.60;10.90;;;;;;;7.83;72.57;98796.56;106235;1315;22482;-54
2021/11/22 02:12:20;;;;;;;14.30;10.60;;;;;;;7.82;72.57;98798.07;106156;1315;23711;-54
2021/11/22 02:14:48;;;;;;;16.50;11.10;;;;;;;7.81;72.76;98795.13;105956;1316;137795;-54
2021/11/22 02:17:17;;;;;;;13.60;9.90;;;;;;;7.81;72.78;98796.64;106234;1315;22390;-53
2021/11/22 02:19:52;;;;;;;16.60;10.80;;;;;;;7.80;72.71;98795.88;106182;1316;137318;-53
2021/11/22 02:22:21;;;;;;;18.50;10.00;;;;;;;7.80;72.84;98794.20;106170;1315;23767;-53
2021/11/22 02:24:49;;;;;;;14.00;10.00;;;;;;;7.81;72.88;98793.45;106278;1315;22551;-54
2021/11/22 02:27:17;;;;;;;13.60;10.30;;;;;;;7.81;72.84;98795.45;106136;1315;138864;-54
2021/11/22 02:29:45;;;;;;;16.90;11.30;;;;;;;7.79;72.77;98795.23;106244;1316;22457;-54
2021/11/22 02:32:14;;;;;;;12.60;9.00;;;;;;;7.78;72.75;98801.24;106185;1319;138206;-54
2021/11/22 02:34:43;;;;;;;11.90;9.10;;;;;;;7.76;72.69;98799.17;106241;1315;23463;-53
2021/11/22 02:37:12;;;;;;;13.10;9.90;;;;;;;7.74;72.77;98797.14;106118;1315;137736;-54
2021/11/22 02:39:40;;;;;;;15.20;10.10;;;;;;;7.73;72.66;98808.47;106270;1315;23290;-53
2021/11/22 02:42:32;;;;;;;12.50;10.10;;;;;;;7.71;72.91;98812.79;106244;1315;22575;-53
2021/11/22 02:45:00;;;;;;;16.50;11.10;;;;;;;7.69;73.14;98814.23;106005;1315;137762;-54
2021/11/22 02:47:29;;;;;;;16.70;12.10;;;;;;;7.68;72.87;98817.23;106314;1315;22474;-53
2021/11/22 02:49:58;;;;;;;15.50;10.80;;;;;;;7.66;73.00;98818.48;106135;1315;139796;-53
2021/11/22 02:52:27;;;;;;;15.20;11.00;;;;;;;7.66;72.97;98818.41;105270;1323;22401;-53
2021/11/22 02:54:55;;;;;;;13.50;10.10;;;;;;;7.66;73.03;98819.39;106138;1315;139103;-54
2021/11/22 02:57:23;;;;;;;14.00;10.10;;;;;;;7.64;73.11;98819.77;106205;1315;22693;-53
2021/11/22 02:59:51;;;;;;;13.60;10.30;;;;;;;7.63;73.11;98822.48;106291;1315;22292;-53
2021/11/22 03:02:20;;;;;;;15.00;9.30;;;;;;;7.61;73.13;98819.46;106161;1315;139831;-53
2021/11/22 03:04:49;;;;;;;12.10;9.30;;;;;;;7.61;73.19;98826.67;106214;1316;23268;-53
2021/11/22 03:07:17;;;;;;;14.30;9.20;;;;;;;7.59;73.45;98826.65;106148;1315;139600;-52
2021/11/22 03:09:45;;;;;;;12.50;10.00;;;;;;;7.59;73.49;98826.48;106262;1319;22487;-53
2021/11/22 03:12:19;;;;;;;13.90;9.50;;;;;;;7.59;73.31;98822.65;106222;1315;22467;-54
2021/11/22 03:14:47;;;;;;;12.60;9.00;;;;;;;7.59;73.40;98826.77;106129;1315;137638;-55
2021/11/22 03:17:15;;;;;;;12.60;9.20;;;;;;;7.58;73.55;98827.55;106169;1317;22479;-55
2021/11/22 03:19:45;;;;;;;13.50;10.10;;;;;;;7.59;73.38;98837.71;105908;1315;138471;-53
2021/11/22 03:22:13;;;;;;;14.20;9.60;;;;;;;7.58;73.63;98837.39;106148;1315;22423;-53
2021/11/22 03:24:41;;;;;;;11.40;9.50;;;;;;;7.59;73.61;98837.70;106299;1319;23304;-53
2021/11/22 03:27:09;;;;;;;12.30;9.20;;;;;;;7.59;73.64;98839.94;106135;1315;137719;-52
2021/11/22 03:29:38;;;;;;;12.80;9.40;;;;;;;7.59;73.65;98846.66;106175;1315;22895;-53
2021/11/22 03:32:08;;;;;;;15.60;9.80;;;;;;;7.59;73.62;98844.66;106115;1316;139962;-53
2021/11/22 03:34:36;;;;;;;14.30;9.60;;;;;;;7.57;73.65;98848.70;105886;1316;22477;-53
2021/11/22 03:37:05;;;;;;;16.60;9.50;;;;;;;7.57;73.68;98859.53;106139;1315;138830;-53
2021/11/22 03:39:36;;;;;;;12.50;8.80;;;;;;;7.56;73.66;98863.32;106309;1316;22447;-53
2021/11/22 03:42:07;;;;;;;16.30;9.80;;;;;;;7.55;73.78;98864.34;105730;1315;22566;-53
2021/11/22 03:44:36;;;;;;;16.50;9.90;;;;;;;7.54;73.64;98871.15;106205;1315;138578;-53
2021/11/22 03:47:04;;;;;;;21.70;10.60;;;;;;;7.53;73.77;98874.66;106251;1315;22595;-53
2021/11/22 03:49:34;;;;;;;11.90;9.30;;;;;;;7.51;73.80;98875.73;106034;1315;138032;-53
2021/11/22 03:52:02;;;;;;;14.90;9.90;;;;;;;7.48;73.48;98877.29;106252;1315;22488;-53
2021/11/22 03:54:31;;;;;;;15.40;9.80;;;;;;;7.47;73.61;98884.91;106204;1315;22580;-53
2021/11/22 03:56:59;;;;;;;14.80;8.50;;;;;;;7.45;73.62;98891.12;106152;1317;138620;-53
2021/11/22 03:59:28;;;;;;;11.20;8.40;;;;;;;7.42;73.45;98897.15;106226;1316;22459;-53
2021/11/22 04:01:56;;;;;;;9.30;6.90;;;;;;;7.40;73.71;98901.63;106027;1316;138192;-53
2021/11/22 04:04:25;;;;;;;10.20;6.70;;;;;;;7.38;73.01;98906.36;106156;1315;22496;-53
2021/11/22 04:06:55;;;;;;;9.90;5.40;;;;;;;7.35;72.79;98913.12;106124;1315;138358;-53
2021/11/22 04:09:24;;;;;;;6.50;4.60;;;;;;;7.32;71.96;98915.69;106257;1315;22686;-52
2021/11/22 04:11:52;;;;;;;7.90;4.40;;;;;;;7.27;71.31;98917.28;106270;1315;22423;-53
2021/11/22 04:14:21;;;;;;;7.00;4.50;;;;;;;7.23;71.14;98920.52;105736;1315;137629;-53
2021/11/22 04:16:50;;;;;;;8.20;4.50;;;;;;;7.20;71.20;98924.08;106269;1315;23471;-52
2021/11/22 04:19:19;;;;;;;6.30;4.40;;;;;;;7.17;71.20;98926.42;106133;1315;138990;-53
2021/11/22 04:21:47;;;;;;;6.50;4.90;;;;;;;7.15;71.24;98930.73;106208;1315;22438;-53
2021/11/22 04:24:16;;;;;;;8.40;5.20;;;;;;;7.13;71.28;98930.91;106276;1319;22565;-53
2021/11/22 04:26:44;;;;;;;8.20;4.40;;;;;;;7.10;71.24;98936.89;106125;1315;137945;-53
2021/11/22 04:29:14;;;;;;;7.90;4.40;;;;;;;7.09;71.25;98940.44;106212;1315;22470;-53
2021/11/22 04:31:42;;;;;;;6.80;4.20;;;;;;;7.05;71.45;98942.79;106154;1315;137915;-53
2021/11/22 04:34:11;;;;;;;6.50;4.20;;;;;;;7.03;71.39;98941.99;106238;1315;22461;-53
2021/11/22 04:36:39;;;;;;;5.90;3.90;;;;;;;7.01;71.56;98946.15;106231;1315;22578;-53
2021/11/22 04:39:07;;;;;;;12.00;5.10;;;;;;;7.01;71.40;98949.34;106157;1315;138309;-53
2021/11/22 04:41:37;;;;;;;7.40;4.30;;;;;;;6.98;71.44;98954.10;106218;1316;23285;-53
2021/11/22 04:44:06;;;;;;;7.00;4.70;;;;;;;6.95;71.73;98958.92;106075;1316;137777;-54
2021/11/22 04:46:34;;;;;;;8.80;4.90;;;;;;;6.93;71.59;98965.77;106194;1315;22481;-53
2021/11/22 04:49:03;;;;;;;6.50;4.30;;;;;;;6.90;71.83;98969.55;106015;1315;139407;-53
2021/11/22 04:51:31;;;;;;;5.50;4.20;;;;;;;6.87;71.81;98968.98;106267;1316;22524;-53
2021/11/22 04:53:59;;;;;;;6.50;4.70;;;;;;;6.85;72.34;98971.29;106244;1316;22544;-54
2021/11/22 04:56:28;;;;;;;7.30;5.50;;;;;;;6.82;72.13;98974.60;106133;1315;138101;-53
2021/11/22 04:58:56;;;;;;;7.40;5.20;;;;;;;6.80;72.45;98975.86;106239;1316;22517;-54
2021/11/22 05:01:24;;;;;;;9.10;5.70;;;;;;;6.78;72.66;98977.40;106155;1315;139513;-53
2021/11/22 05:03:58;;;;;;;9.20;5.10;;;;;;;6.79;72.87;98982.30;106245;1315;22509;-53
2021/11/22 05:06:26;;;;;;;10.00;5.50;;;;;;;6.78;73.09;98980.48;106233;1316;22460;-53
2021/11/22 05:08:56;;;;;;;9.70;5.20;;;;;;;6.75;73.05;98987.66;105314;1315;137753;-54
2021/11/22 05:11:24;;;;;;;5.40;4.20;;;;;;;6.73;73.23;98997.16;106255;1315;23033;-53
2021/11/22 05:13:53;;;;;;;8.80;4.90;;;;;;;6.70;73.42;98998.84;105985;1316;137674;-53
2021/11/22 05:16:21;;;;;;;7.20;5.00;;;;;;;6.69;73.49;99007.32;106300;1319;22542;-53
2021/11/22 05:18:50;;;;;;;8.50;6.20;;;;;;;6.68;73.55;99009.84;106191;1316;22598;-54
2021/11/22 05:21:18;;;;;;;7.40;4.90;;;;;;;6.66;73.88;99017.77;106128;1316;137763;-53
2021/11/22 05:23:48;;;;;;;8.20;4.60;;;;;;;6.64;73.77;99022.17;106255;1315;23320;-53
2021/11/22 05:26:16;;;;;;;12.40;7.10;;;;;;;6.62;74.30;99026.87;105878;1316;138685;-53
2021/11/22 05:28:45;;;;;;;22.00;9.40;;;;;;;6.60;74.21;99030.61;106232;1315;22611;-54
2021/11/22 05:31:14;;;;;;;13.60;7.00;;;;;;;6.58;74.37;99035.34;106116;1316;139212;-53
2021/11/22 05:33:42;;;;;;;66.30;26.30;;;;;;;6.57;74.49;99037.52;106245;1315;22538;-53
2021/11/22 05:36:11;;;;;;;62.00;25.20;;;;;;;6.57;74.58;99039.69;106193;1315;22551;-53
2021/11/22 05:38:39;;;;;;;19.30;9.50;;;;;;;6.58;74.46;99040.42;106129;1316;138886;-54
2021/11/22 05:41:07;;;;;;;14.40;7.60;;;;;;;6.58;74.53;99041.98;102752;1316;24381;-56
2021/11/22 05:43:36;;;;;;;19.20;9.70;;;;;;;6.56;74.40;99046.79;106050;1317;138464;-53
2021/11/22 05:46:04;;;;;;;24.90;12.00;;;;;;;6.55;74.66;99053.52;106271;1315;23503;-53
2021/11/22 05:48:33;;;;;;;28.50;15.70;;;;;;;6.53;74.49;99061.60;106301;1315;23204;-53
2021/11/22 05:51:01;;;;;;;101.50;51.30;;;;;;;6.52;74.87;99061.79;106190;1316;139102;-53
2021/11/22 05:53:34;;;;;;;18.20;10.50;;;;;;;6.50;74.81;99063.81;106198;1316;22477;-53
2021/11/22 05:56:05;;;;;;;9.90;6.90;;;;;;;6.48;74.75;99067.38;106158;1320;138308;-53
2021/11/22 05:58:33;;;;;;;9.20;5.90;;;;;;;6.45;74.59;99067.58;106229;1316;22483;-53
2021/11/22 06:01:03;;;;;;;9.30;5.20;;;;;;;6.44;74.47;99074.59;106153;1315;139714;-53
2021/11/22 06:03:31;;;;;;;6.70;4.40;;;;;;;6.43;74.48;99077.60;106287;1315;23140;-53
2021/11/22 06:06:00;;;;;;;6.90;4.50;;;;;;;6.43;74.45;99082.64;106176;1315;23986;-53
2021/11/22 06:08:28;;;;;;;8.50;4.40;;;;;;;6.41;74.69;99092.12;106159;1315;138022;-53
2021/11/22 06:10:56;;;;;;;9.10;4.70;;;;;;;6.37;74.48;99098.95;106182;1315;22436;-53
2021/11/22 06:13:25;;;;;;;7.40;4.40;;;;;;;6.32;74.62;99103.27;106179;1316;138870;-54
2021/11/22 06:15:53;;;;;;;8.10;4.10;;;;;;;6.30;74.55;99106.64;106300;1315;22486;-53
2021/11/22 06:18:21;;;;;;;5.90;4.10;;;;;;;6.29;74.45;99109.33;106237;1315;22480;-53
2021/11/22 06:20:49;;;;;;;5.10;3.70;;;;;;;6.29;73.89;99110.34;106236;1315;139490;-53
2021/11/22 06:23:19;;;;;;;7.90;5.20;;;;;;;6.27;73.54;99110.79;106229;1316;24509;-54
2021/11/22 06:25:47;;;;;;;6.70;3.50;;;;;;;6.27;73.49;99110.63;105833;1316;139068;-53
2021/11/22 06:28:16;;;;;;;5.70;3.70;;;;;;;6.28;73.51;99111.94;106221;1316;22563;-54
2021/11/22 06:30:44;;;;;;;7.00;3.70;;;;;;;6.28;73.37;99117.84;106264;1315;22572;-53
2021/11/22 06:33:12;;;;;;;7.60;3.40;;;;;;;6.29;73.27;99118.23;106100;1315;138905;-53
2021/11/22 06:35:41;;;;;;;5.70;3.30;;;;;;;6.31;73.07;99117.54;106277;1319;22585;-55
2021/11/22 06:38:09;;;;;;;8.40;3.70;;;;;;;6.33;72.89;99119.36;106140;1316;139588;-54
2021/11/22 06:40:38;;;;;;;5.30;3.00;;;;;;;6.34;72.55;99125.88;106274;1316;22473;-54
2021/11/22 06:43:07;;;;;;;5.50;3.00;;;;;;;6.34;72.63;99126.69;106073;1315;138027;-53
2021/11/22 06:45:36;;;;;;;4.30;3.20;;;;;;;6.35;72.60;99133.51;106248;1320;23580;-54
2021/11/22 06:48:04;;;;;;;5.70;3.60;;;;;;;6.37;72.18;99134.52;106272;1315;23756;-54
2021/11/22 06:50:35;;;;;;;9.50;3.30;;;;;;;6.40;72.22;99138.85;106172;1315;140056;-54
2021/11/22 06:53:03;;;;;;;7.70;3.30;;;;;;;6.41;72.13;99143.00;106351;1315;22452;-53
2021/11/22 06:55:32;;;;;;;9.70;4.70;;;;;;;6.42;72.12;99139.98;106158;1315;138080;-54
2021/11/22 06:58:00;;;;;;;6.50;3.90;;;;;;;6.43;72.05;99145.04;106187;1316;23240;-53
2021/11/22 07:00:28;;;;;;;6.80;3.60;;;;;;;6.45;71.82;99145.63;106295;1316;22488;-53
2021/11/22 07:02:56;;;;;;;5.50;2.90;;;;;;;6.47;71.45;99148.09;106240;1316;139339;-53
2021/11/22 07:05:25;;;;;;;4.90;3.20;;;;;;;6.47;70.93;99151.25;106299;1315;22487;-54
2021/11/22 07:07:53;;;;;;;10.50;2.60;;;;;;;6.47;71.03;99150.09;106236;1315;138759;-53
2021/11/22 07:10:21;;;;;;;4.80;2.40;;;;;;;6.47;70.59;99155.67;106288;1316;22415;-53
2021/11/22 07:12:50;;;;;;;4.40;2.70;;;;;;;6.47;69.46;99162.33;106323;1315;22501;-54
2021/11/22 07:15:21;;;;;;;4.50;2.20;;;;;;;6.44;68.52;99163.52;106155;1316;137828;-53
2021/11/22 07:17:50;;;;;;;3.00;1.60;;;;;;;6.42;68.17;99164.39;106278;1315;22575;-53
2021/11/22 07:20:19;;;;;;;2.50;1.50;;;;;;;6.42;68.15;99171.80;106115;1316;137959;-53
2021/11/22 07:22:47;;;;;;;2.40;1.40;;;;;;;6.41;67.39;99174.27;106314;1316;22458;-53
2021/11/22 07:25:15;;;;;;;2.10;1.30;;;;;;;6.38;67.47;99173.65;106211;1316;137834;-54
2021/11/22 07:27:44;;;;;;;3.30;0.90;;;;;;;6.37;67.51;99178.96;106200;1316;22465;-54
2021/11/22 07:30:17;;;;;;;1.00;0.80;;;;;;;6.39;67.11;99184.84;106260;1316;23162;-53
2021/11/22 07:32:51;;;;;;;5.20;2.80;;;;;;;6.39;65.80;99193.06;106249;1316;138230;-53
2021/11/22 07:35:21;;;;;;;3.00;2.00;;;;;;;6.38;66.20;99195.87;106316;1316;22448;-54
2021/11/22 07:37:49;;;;;;;3.90;1.70;;;;;;;6.38;65.36;99199.16;106074;1316;137831;-54
2021/11/22 07:40:22;;;;;;;3.00;1.80;;;;;;;6.37;65.99;99200.48;106350;1316;22446;-53
2021/11/22 07:42:52;;;;;;;8.40;3.40;;;;;;;6.39;65.40;99204.42;106291;1316;23246;-53
2021/11/22 07:45:21;;;;;;;3.90;1.90;;;;;;;6.42;65.05;99207.80;106199;1316;138003;-54
2021/11/22 07:47:49;;;;;;;3.70;1.80;;;;;;;6.43;65.20;99211.45;106290;1316;22596;-53
2021/11/22 07:50:22;;;;;;;4.20;1.30;;;;;;;6.44;64.40;99207.84;106075;1319;138672;-53
2021/11/22 07:52:51;;;;;;;2.00;1.00;;;;;;;6.42;64.53;99212.51;105192;1323;22501;-53
2021/11/22 07:55:21;;;;;;;2.60;1.10;;;;;;;6.43;64.07;99215.27;106122;1316;139851;-53
2021/11/22 07:57:50;;;;;;;2.90;1.60;;;;;;;6.41;64.46;99220.55;106253;1316;22481;-53
2021/11/22 08:00:19;;;;;;;2.20;1.20;;;;;;;6.42;64.44;99218.45;106232;1316;22359;-54
2021/11/22 08:02:48;;;;;;;2.70;1.40;;;;;;;6.44;64.46;99218.71;106012;1320;139663;-53
2021/11/22 08:05:16;;;;;;;1.30;0.90;;;;;;;6.46;64.21;99231.98;106142;1317;22381;-53
2021/11/22 08:07:45;;;;;;;2.10;1.20;;;;;;;6.47;63.81;99232.64;106096;1316;139003;-53
2021/11/22 08:12:53;;;;;;;2.60;1.00;;;;;;;6.51;63.21;99239.84;106229;1318;23297;-53
2021/11/22 08:15:21;;;;;;;3.70;1.30;;;;;;;6.51;63.44;99243.96;105866;1319;137983;-53
2021/11/22 08:17:49;;;;;;;2.60;1.60;;;;;;;6.52;63.46;99250.48;106293;1316;22400;-53
2021/11/22 08:20:18;;;;;;;5.00;1.20;;;;;;;6.55;63.30;99251.30;106145;1316;138767;-53
2021/11/22 08:22:48;;;;;;;3.50;1.50;;;;;;;6.56;62.91;99255.08;106176;1320;22486;-53
2021/11/22 08:25:16;;;;;;;6.80;3.10;;;;;;;6.57;62.79;99259.43;106079;1316;139007;-53
2021/11/22 08:27:45;;;;;;;5.40;2.00;;;;;;;6.57;62.97;99261.54;106142;1316;22866;-53
2021/11/22 08:30:15;;;;;;;2.40;1.30;;;;;;;6.58;62.95;99263.52;106204;1317;23254;-53
2021/11/22 08:32:50;;;;;;;3.40;1.80;;;;;;;6.58;62.41;99268.02;106111;1316;138612;-52
2021/11/22 08:35:18;;;;;;;2.50;1.20;;;;;;;6.57;62.68;99264.96;106348;1316;22270;-53
2021/11/22 08:37:47;;;;;;;3.70;0.90;;;;;;;6.57;62.66;99265.33;106160;1316;138027;-53
2021/11/22 08:40:18;;;;;;;2.80;1.30;;;;;;;6.58;62.84;99267.14;106323;1316;22473;-53
2021/11/22 08:42:46;;;;;;;1.10;0.80;;;;;;;6.60;62.66;99272.16;106225;1315;22609;-53
2021/11/22 08:45:15;;;;;;;2.30;1.30;;;;;;;6.61;62.84;99269.80;106137;1316;138756;-53
2021/11/22 08:47:43;;;;;;;2.70;1.50;;;;;;;6.65;62.74;99269.98;106257;1315;22620;-53
2021/11/22 08:50:13;;;;;;;1.80;0.90;;;;;;;6.69;62.59;99273.26;106168;1316;138985;-53
2021/11/22 08:52:42;;;;;;;2.30;1.10;;;;;;;6.71;62.75;99276.84;106291;1317;22436;-52
2021/11/22 08:55:11;;;;;;;1.70;1.10;;;;;;;6.72;62.77;99281.78;106169;1316;138959;-52
2021/11/22 08:57:40;;;;;;;2.70;1.50;;;;;;;6.73;62.51;99280.73;106194;1316;22461;-53
2021/11/22 09:00:10;;;;;;;6.10;1.60;;;;;;;6.74;62.41;99286.66;106339;1317;22477;-53
2021/11/22 09:02:38;;;;;;;1.50;1.10;;;;;;;6.73;62.57;99287.81;106115;1315;138038;-53
2021/11/22 09:05:07;;;;;;;3.00;1.60;;;;;;;6.71;62.63;99289.17;106330;1316;22473;-53
2021/11/22 09:07:36;;;;;;;1.70;1.10;;;;;;;6.70;62.50;99287.98;106172;1316;139200;-53
2021/11/22 09:10:04;;;;;;;3.50;2.10;;;;;;;6.70;62.57;99291.98;106252;1315;22460;-53
2021/11/22 09:12:35;;;;;;;4.40;2.20;;;;;;;6.69;63.12;99291.89;106224;1317;23258;-52
2021/11/22 09:15:03;;;;;;;4.30;2.20;;;;;;;6.69;63.52;99295.20;106200;1316;138753;-53
2021/11/22 09:17:32;;;;;;;4.70;2.80;;;;;;;6.68;63.58;99296.73;106310;1316;22523;-53
2021/11/22 09:20:00;;;;;;;6.20;3.50;;;;;;;6.66;63.74;99301.67;106184;1316;138573;-53
2021/11/22 09:22:28;;;;;;;4.30;2.60;;;;;;;6.67;64.07;99304.99;106160;1316;23130;-52
2021/11/22 09:25:00;;;;;;;3.20;2.50;;;;;;;6.68;64.41;99304.98;106208;1316;138709;-53
2021/11/22 09:27:29;;;;;;;7.00;2.80;;;;;;;6.69;64.29;99306.03;106162;1315;22621;-53
2021/11/22 09:29:59;;;;;;;5.60;2.30;;;;;;;6.69;64.41;99298.45;106278;1319;24780;-53
2021/11/22 09:32:27;;;;;;;4.60;2.70;;;;;;;6.69;64.19;99304.02;106194;1316;138113;-53
2021/11/22 09:34:56;;;;;;;5.00;2.90;;;;;;;6.69;64.27;99303.20;106216;1316;22421;-53
2021/11/22 09:37:24;;;;;;;4.70;2.60;;;;;;;6.68;64.36;99303.94;106142;1316;139087;-53
2021/11/22 09:39:52;;;;;;;3.30;1.40;;;;;;;6.66;64.32;99304.83;105058;1316;22601;-52
2021/11/22 09:42:20;;;;;;;12.60;3.00;;;;;;;6.63;64.00;99304.54;102275;1315;22650;-52
2021/11/22 09:44:49;;;;;;;5.10;1.80;;;;;;;6.59;64.04;99307.65;106034;1316;138351;-53
2021/11/22 09:47:17;;;;;;;4.90;2.00;;;;;;;6.56;64.29;99304.33;106246;1315;22486;-53
2021/11/22 09:49:46;;;;;;;4.30;2.50;;;;;;;6.51;64.28;99303.41;106145;1316;140079;-53
2021/11/22 09:52:14;;;;;;;5.40;3.10;;;;;;;6.44;64.61;99298.07;106212;1316;23182;-53
2021/11/22 09:54:42;;;;;;;6.70;3.20;;;;;;;6.43;64.62;99305.70;106222;1316;22425;-53
2021/11/22 09:57:12;;;;;;;12.20;3.30;;;;;;;6.39;64.68;99308.73;106167;1317;139498;-53
2021/11/22 09:59:42;;;;;;;5.00;2.40;;;;;;;6.38;64.43;99312.20;106259;1316;23187;-53
2021/11/22 10:02:10;;;;;;;7.60;2.80;;;;;;;6.36;64.46;99313.30;106117;1316;138557;-53
2021/11/22 10:04:39;;;;;;;7.10;2.70;;;;;;;6.34;64.97;99308.39;106219;1315;22473;-53
2021/11/22 10:07:09;;;;;;;4.00;2.10;;;;;;;6.36;64.57;99312.98;106103;1315;138669;-53
2021/11/22 10:09:40;;;;;;;3.20;2.30;;;;;;;6.37;64.71;99311.76;106176;1315;22552;-53
2021/11/22 10:12:29;;;;;;;4.30;2.40;;;;;;;6.36;64.74;99309.52;106313;1316;22438;-53
2021/11/22 10:14:58;;;;;;;7.20;2.90;;;;;;;6.34;64.60;99308.23;106156;1315;138645;-53
2021/11/22 10:17:38;;;;;;;5.50;2.70;;;;;;;6.35;64.68;99308.77;106331;1316;22591;-53
2021/11/22 10:20:07;;;;;;;3.50;2.10;;;;;;;6.36;65.05;99307.60;106212;1316;138681;-53
2021/11/22 10:22:54;;;;;;;3.90;2.40;;;;;;;6.37;64.34;99308.13;106337;1316;22496;-52
2021/11/22 10:25:30;;;;;;;4.40;2.10;;;;;;;6.38;64.13;99302.30;106116;1316;139407;-53
2021/11/22 10:28:19;;;;;;;2.70;1.90;;;;;;;6.40;64.04;99304.13;106225;1316;22601;-53
2021/11/22 10:30:56;;;;;;;3.30;2.30;;;;;;;6.42;64.20;99306.55;106296;1316;22487;-53
2021/11/22 10:33:29;;;;;;;2.90;1.90;;;;;;;6.45;63.61;99310.80;106099;1316;137907;-53
2021/11/22 10:36:00;;;;;;;2.30;1.70;;;;;;;6.47;63.47;99308.75;106333;1315;22463;-53
2021/11/22 10:38:30;;;;;;;1.60;1.20;;;;;;;6.51;63.27;99313.02;106117;1316;137794;-52
2021/11/22 10:41:07;;;;;;;5.30;1.70;;;;;;;6.55;62.91;99313.73;103175;1316;22662;-59
2021/11/22 10:43:49;;;;;;;9.50;2.10;;;;;;;6.60;63.07;99309.35;102144;1316;138293;-58
2021/11/22 10:46:30;;;;;;;3.60;1.90;;;;;;;6.66;62.80;99306.28;102223;1316;24244;-58
2021/11/22 10:49:16;;;;;;;3.50;2.00;;;;;;;6.71;62.33;99304.23;106186;1316;23286;-59
2021/11/22 10:51:47;;;;;;;7.60;2.30;;;;;;;6.71;62.55;99302.45;106325;1316;22460;-59
2021/11/22 10:54:17;;;;;;;3.60;2.70;;;;;;;6.71;62.85;99304.40;106337;1316;22539;-59
2021/11/22 10:56:47;;;;;;;6.00;3.10;;;;;;;6.74;62.89;99302.40;106099;1315;137652;-59
2021/11/22 10:59:20;;;;;;;3.20;1.80;;;;;;;6.76;62.55;99302.23;106230;1316;22750;-59
2021/11/22 11:01:53;;;;;;;3.70;2.30;;;;;;;6.81;62.37;99309.41;105231;1316;138715;-59
2021/11/22 11:04:25;;;;;;;6.00;2.10;;;;;;;6.84;62.50;99305.86;106240;1316;22574;-59
2021/11/22 11:06:58;;;;;;;5.90;2.90;;;;;;;6.89;62.92;99306.90;106280;1315;22476;-59
2021/11/22 11:09:32;;;;;;;8.50;3.20;;;;;;;6.92;62.71;99305.09;106241;1319;138645;-59
2021/11/22 11:12:23;;;;;;;6.80;3.10;;;;;;;6.97;62.27;99312.52;106294;1315;22491;-59
2021/11/22 11:14:55;;;;;;;4.90;3.10;;;;;;;6.99;62.22;99316.67;106084;1316;137892;-59
2021/11/22 11:17:35;;;;;;;9.50;3.60;;;;;;;6.99;62.67;99312.44;106281;1315;23193;-59
2021/11/22 11:20:11;;;;;;;6.30;2.90;;;;;;;6.99;62.13;99312.84;106148;1316;137838;-59
2021/11/22 11:22:40;;;;;;;6.10;2.70;;;;;;;6.99;62.33;99310.98;105931;1315;22488;-59
2021/11/22 11:25:09;;;;;;;4.90;3.30;;;;;;;7.01;62.34;99322.56;106139;1316;22954;-59
2021/11/22 11:27:43;;;;;;;4.20;2.20;;;;;;;7.04;62.45;99319.50;106206;1316;137935;-59
2021/11/22 11:30:15;;;;;;;5.20;2.80;;;;;;;7.02;62.16;99321.46;106316;1315;22560;-59
2021/11/22 11:32:44;;;;;;;4.30;2.60;;;;;;;6.97;62.18;99324.43;106247;1316;138026;-58
2021/11/22 11:35:17;;;;;;;7.50;2.80;;;;;;;6.91;62.36;99319.61;106295;1315;22479;-58
2021/11/22 11:38:11;;;;;;;4.00;2.90;;;;;;;6.87;62.31;99319.35;106218;1316;137632;-59
2021/11/22 11:41:05;;;;;;;4.00;2.60;;;;;;;6.79;62.53;99329.30;103612;1315;22920;-58